createdAt,value
2022-10-19T00:00:33.177Z,13.43
2022-10-19T00:02:59.904Z,13.36
2022-10-19T00:05:28.182Z,13.30
2022-10-19T00:07:55.688Z,13.27
2022-10-19T00:10:22.437Z,13.24
2022-10-19T00:15:21.027Z,13.22
2022-10-19T00:17:47.700Z,13.20
2022-10-19T00:20:14.459Z,13.22
2022-10-19T00:22:41.182Z,13.22
2022-10-19T00:25:08.618Z,13.21
2022-10-19T00:27:35.932Z,13.19
2022-10-19T00:30:03.136Z,13.15
2022-10-19T00:32:29.990Z,13.13
2022-10-19T00:34:57.877Z,13.09
2022-10-19T00:37:24.664Z,13.05
2022-10-19T00:42:23.073Z,13.02
2022-10-19T00:44:49.895Z,13.03
2022-10-19T00:47:20.357Z,13.05
2022-10-19T00:49:47.240Z,13.06
2022-10-19T00:52:18.166Z,13.09
2022-10-19T00:54:48.249Z,13.11
2022-10-19T00:57:15.601Z,13.12
2022-10-19T00:59:45.545Z,13.13
2022-10-19T01:02:12.958Z,13.13
2022-10-19T01:04:44.872Z,13.13
2022-10-19T01:07:12.858Z,13.12
2022-10-19T01:09:39.672Z,13.10
2022-10-19T01:12:31.347Z,13.10
2022-10-19T01:15:13.448Z,13.09
2022-10-19T01:17:48.883Z,13.08
2022-10-19T01:20:33.139Z,13.12
2022-10-19T01:23:00.936Z,13.12
2022-10-19T01:25:30.976Z,13.09
2022-10-19T01:28:29.094Z,13.06
2022-10-19T01:31:23.635Z,13.07
2022-10-19T01:34:07.111Z,13.06
2022-10-19T01:36:42.335Z,13.08
2022-10-19T01:39:15.780Z,13.11
2022-10-19T01:41:55.369Z,13.10
2022-10-19T01:44:25.394Z,13.07
2022-10-19T01:46:58.229Z,13.09
2022-10-19T01:49:34.282Z,13.09
2022-10-19T01:52:06.428Z,13.09
2022-10-19T01:54:39.083Z,13.09
2022-10-19T01:57:09.308Z,13.11
2022-10-19T01:59:37.361Z,13.15
2022-10-19T02:02:08.020Z,13.15
2022-10-19T02:04:36.885Z,13.15
2022-10-19T02:07:05.642Z,13.14
2022-10-19T02:09:33.205Z,13.14
2022-10-19T02:12:03.864Z,13.18
2022-10-19T02:14:35.572Z,13.22
2022-10-19T02:17:08.455Z,13.23
2022-10-19T02:19:35.660Z,13.24
2022-10-19T02:22:02.708Z,13.22
2022-10-19T02:24:29.424Z,13.20
2022-10-19T02:26:57.188Z,13.21
2022-10-19T02:29:24.043Z,13.22
2022-10-19T02:31:50.812Z,13.21
2022-10-19T02:34:17.581Z,13.21
2022-10-19T02:36:44.343Z,13.22
2022-10-19T02:39:11.304Z,13.23
2022-10-19T02:41:45.938Z,13.25
2022-10-19T02:44:22.791Z,13.26
2022-10-19T02:46:59.200Z,13.24
2022-10-19T02:49:27.760Z,13.22
2022-10-19T02:52:05.029Z,13.14
2022-10-19T02:54:32.531Z,13.01
2022-10-19T02:56:59.497Z,12.92
2022-10-19T02:59:26.419Z,12.85
2022-10-19T03:01:53.263Z,12.83
2022-10-19T03:04:20.014Z,12.84
2022-10-19T03:06:46.893Z,12.81
2022-10-19T03:09:13.696Z,12.73
2022-10-19T03:12:31.024Z,12.66
2022-10-19T03:15:19.880Z,12.59
2022-10-19T03:17:46.673Z,12.62
2022-10-19T03:20:13.465Z,12.66
2022-10-19T03:22:40.309Z,12.71
2022-10-19T03:25:07.986Z,12.73
2022-10-19T03:27:35.053Z,12.73
2022-10-19T03:30:02.201Z,12.72
2022-10-19T03:32:29.040Z,12.70
2022-10-19T03:34:55.764Z,12.73
2022-10-19T03:37:22.532Z,12.77
2022-10-19T03:39:49.365Z,12.80
2022-10-19T03:42:16.028Z,12.83
2022-10-19T03:44:42.962Z,12.78
2022-10-19T03:47:09.819Z,12.75
2022-10-19T03:49:39.551Z,12.72
2022-10-19T03:52:07.586Z,12.71
2022-10-19T03:54:34.253Z,12.72
2022-10-19T03:57:00.972Z,12.73
2022-10-19T03:59:27.939Z,12.73
2022-10-19T04:01:54.726Z,12.69
2022-10-19T04:04:21.524Z,12.65
2022-10-19T04:06:50.252Z,12.57
2022-10-19T04:09:19.133Z,12.52
2022-10-19T04:11:46.095Z,12.48
2022-10-19T04:14:22.761Z,12.46
2022-10-19T04:17:01.170Z,12.48
2022-10-19T04:19:27.941Z,12.50
2022-10-19T04:21:54.676Z,12.46
2022-10-19T04:24:21.408Z,12.41
2022-10-19T04:26:51.068Z,12.34
2022-10-19T04:29:19.616Z,12.31
2022-10-19T04:31:48.370Z,12.28
2022-10-19T04:34:15.248Z,12.22
2022-10-19T04:36:42.056Z,12.19
2022-10-19T04:39:09.205Z,12.12
2022-10-19T04:41:37.894Z,12.06
2022-10-19T04:44:06.819Z,11.99
2022-10-19T04:46:34.034Z,11.93
2022-10-19T04:49:01.166Z,11.89
2022-10-19T04:51:28.127Z,11.85
2022-10-19T04:53:59.383Z,11.82
2022-10-19T04:56:28.231Z,11.77
2022-10-19T04:58:57.714Z,11.71
2022-10-19T05:01:26.391Z,11.64
2022-10-19T05:06:27.274Z,11.50
2022-10-19T05:08:54.380Z,11.46
2022-10-19T05:11:21.468Z,11.43
2022-10-19T05:13:48.931Z,11.36
2022-10-19T05:16:19.351Z,11.31
2022-10-19T05:18:48.977Z,11.27
2022-10-19T05:21:16.683Z,11.24
2022-10-19T05:23:44.030Z,11.23
2022-10-19T05:26:15.494Z,11.21
2022-10-19T05:28:42.314Z,11.15
2022-10-19T05:31:12.559Z,11.10
2022-10-19T05:33:40.530Z,11.05
2022-10-19T05:36:26.217Z,10.99
2022-10-19T05:38:54.955Z,10.96
2022-10-19T05:41:23.326Z,10.95
2022-10-19T05:43:58.103Z,10.94
2022-10-19T05:46:26.882Z,10.92
2022-10-19T05:48:56.098Z,10.91
2022-10-19T05:51:24.583Z,10.93
2022-10-19T05:53:53.084Z,10.96
2022-10-19T05:56:22.607Z,11.02
2022-10-19T05:58:49.959Z,11.09
2022-10-19T06:01:19.196Z,11.10
2022-10-19T06:03:47.379Z,11.16
2022-10-19T06:06:14.028Z,11.22
2022-10-19T06:08:40.832Z,11.29
2022-10-19T06:11:11.543Z,11.38
2022-10-19T06:13:39.772Z,11.42
2022-10-19T06:16:08.442Z,11.50
2022-10-19T06:18:37.163Z,11.56
2022-10-19T06:21:07.520Z,11.59
2022-10-19T06:23:35.633Z,11.64
2022-10-19T06:26:07.735Z,11.69
2022-10-19T06:28:36.188Z,11.77
2022-10-19T06:31:06.040Z,11.80
2022-10-19T06:33:35.395Z,11.81
2022-10-19T06:36:08.238Z,11.84
2022-10-19T06:38:35.473Z,11.88
2022-10-19T06:41:02.671Z,11.91
2022-10-19T06:43:29.607Z,11.98
2022-10-19T06:45:56.652Z,12.08
2022-10-19T06:48:25.892Z,12.13
2022-10-19T06:50:57.756Z,12.12
2022-10-19T06:53:25.006Z,12.07
2022-10-19T06:55:51.761Z,12.08
2022-10-19T06:58:18.838Z,12.14
2022-10-19T07:00:45.608Z,12.18
2022-10-19T07:03:12.422Z,12.22
2022-10-19T07:05:40.516Z,12.26
2022-10-19T07:08:08.451Z,12.31
2022-10-19T07:10:37.468Z,12.39
2022-10-19T07:13:04.270Z,12.42
2022-10-19T07:15:30.978Z,12.43
2022-10-19T07:17:58.261Z,12.47
2022-10-19T07:20:24.990Z,12.50
2022-10-19T07:22:51.715Z,12.51
2022-10-19T07:25:18.553Z,12.51
2022-10-19T07:27:45.259Z,12.54
2022-10-19T07:30:12.058Z,12.57
2022-10-19T07:32:39.601Z,12.57
2022-10-19T07:35:08.225Z,12.62
2022-10-19T07:37:36.146Z,12.66
2022-10-19T07:40:06.697Z,12.70
2022-10-19T07:42:33.986Z,12.69
2022-10-19T07:45:00.744Z,12.69
2022-10-19T07:47:27.512Z,12.76
2022-10-19T07:49:54.213Z,12.93
2022-10-19T07:52:21.232Z,13.19
2022-10-19T07:54:49.910Z,13.39
2022-10-19T07:57:16.695Z,13.53
2022-10-19T07:59:44.293Z,13.64
2022-10-19T08:02:16.517Z,13.72
2022-10-19T08:05:03.973Z,13.89
2022-10-19T08:07:36.425Z,14.26
2022-10-19T08:10:04.665Z,14.52
2022-10-19T08:12:31.821Z,14.55
2022-10-19T08:14:58.785Z,14.57
2022-10-19T08:17:25.918Z,14.56
2022-10-19T08:19:52.707Z,14.48
2022-10-19T08:22:19.476Z,14.34
2022-10-19T08:24:46.220Z,14.20
2022-10-19T08:27:14.881Z,14.12
2022-10-19T08:29:41.760Z,13.96
2022-10-19T08:32:08.582Z,13.85
2022-10-19T08:34:35.398Z,13.73
2022-10-19T08:37:10.212Z,13.63
2022-10-19T08:39:46.967Z,13.57
2022-10-19T08:42:21.356Z,13.56
2022-10-19T08:45:10.975Z,13.58
2022-10-19T08:47:59.081Z,13.62
2022-10-19T08:50:37.962Z,13.66
2022-10-19T08:53:24.658Z,13.65
2022-10-19T08:56:14.968Z,13.59
2022-10-19T08:59:08.466Z,13.63
2022-10-19T09:01:49.946Z,13.76
2022-10-19T09:04:21.170Z,13.89
2022-10-19T09:07:03.584Z,13.99
2022-10-19T09:09:32.707Z,14.04
2022-10-19T09:12:05.514Z,14.03
2022-10-19T09:14:38.721Z,13.96
2022-10-19T09:17:14.604Z,13.94
2022-10-19T09:19:41.442Z,13.92
2022-10-19T09:22:19.235Z,13.99
2022-10-19T09:25:01.254Z,14.12
2022-10-19T09:27:36.247Z,14.29
2022-10-19T09:30:15.463Z,14.45
2022-10-19T09:32:42.972Z,14.57
2022-10-19T09:35:29.429Z,14.64
2022-10-19T09:37:57.038Z,14.68
2022-10-19T09:40:27.321Z,14.78
2022-10-19T09:42:58.874Z,14.86
2022-10-19T09:45:32.346Z,14.93
2022-10-19T09:48:08.716Z,15.10
2022-10-19T09:50:43.764Z,15.34
2022-10-19T09:53:20.036Z,15.50
2022-10-19T09:55:58.293Z,15.53
2022-10-19T09:58:32.079Z,15.49
2022-10-19T10:01:01.198Z,15.40
2022-10-19T10:03:28.067Z,15.22
2022-10-19T10:05:58.784Z,15.14
2022-10-19T10:08:32.049Z,15.08
2022-10-19T10:11:07.232Z,14.95
2022-10-19T10:13:42.724Z,14.80
2022-10-19T10:16:14.168Z,14.62
2022-10-19T10:18:59.022Z,14.38
2022-10-19T10:21:32.165Z,14.17
2022-10-19T10:24:06.750Z,14.00
2022-10-19T10:26:40.595Z,13.84
2022-10-19T10:29:18.728Z,13.70
2022-10-19T10:31:49.150Z,13.64
2022-10-19T10:34:30.253Z,13.61
2022-10-19T10:37:08.425Z,13.61
2022-10-19T10:39:44.039Z,13.58
2022-10-19T10:42:17.366Z,13.61
2022-10-19T10:44:49.361Z,13.60
2022-10-19T10:47:21.264Z,13.56
2022-10-19T10:50:00.269Z,13.57
2022-10-19T10:52:30.773Z,13.58
2022-10-19T10:54:59.436Z,13.56
2022-10-19T10:57:31.126Z,13.56
2022-10-19T11:00:07.855Z,13.55
2022-10-19T11:02:47.004Z,13.52
2022-10-19T11:05:31.344Z,13.51
2022-10-19T11:08:06.268Z,13.47
2022-10-19T11:10:43.623Z,13.39
2022-10-19T11:13:25.821Z,13.33
2022-10-19T11:16:01.276Z,13.31
2022-10-19T11:18:38.157Z,13.34
2022-10-19T11:21:11.843Z,13.36
2022-10-19T11:23:54.753Z,13.36
2022-10-19T11:26:47.667Z,13.31
2022-10-19T11:29:33.585Z,13.28
2022-10-19T11:32:09.740Z,13.27
2022-10-19T11:35:07.882Z,13.33
2022-10-19T11:37:37.545Z,13.44
2022-10-19T11:40:30.321Z,13.50
2022-10-19T11:43:20.424Z,13.52
2022-10-19T11:46:09.531Z,13.58
2022-10-19T11:48:54.748Z,13.59
2022-10-19T11:51:28.202Z,13.55
2022-10-19T11:54:03.441Z,13.55
2022-10-19T11:56:44.727Z,13.48
2022-10-19T11:59:40.417Z,13.41
2022-10-19T12:02:22.759Z,13.25
2022-10-19T12:04:54.120Z,13.07
2022-10-19T12:07:32.000Z,12.98
2022-10-19T12:10:02.380Z,12.85
2022-10-19T12:12:43.914Z,12.78
2022-10-19T12:15:11.783Z,12.74
2022-10-19T12:17:41.378Z,12.67
2022-10-19T12:20:20.255Z,12.59
2022-10-19T12:22:49.592Z,12.56
2022-10-19T12:25:18.979Z,12.56
2022-10-19T12:27:48.051Z,12.60
2022-10-19T12:30:17.868Z,12.68
2022-10-19T12:33:00.325Z,12.80
2022-10-19T12:35:58.531Z,12.91
2022-10-19T12:38:35.474Z,12.98
2022-10-19T12:41:30.412Z,12.99
2022-10-19T12:44:22.444Z,12.93
2022-10-19T12:47:00.051Z,12.90
2022-10-19T12:49:29.035Z,12.87
2022-10-19T12:51:58.644Z,12.79
2022-10-19T12:54:31.988Z,12.75
2022-10-19T12:57:00.950Z,12.73
2022-10-19T12:59:32.295Z,12.70
2022-10-19T13:02:01.573Z,12.66
2022-10-19T13:04:32.613Z,12.62
2022-10-19T13:07:10.967Z,12.59
2022-10-19T13:09:42.089Z,12.55
2022-10-19T13:12:19.951Z,12.54
2022-10-19T13:14:52.853Z,12.56
2022-10-19T13:17:38.047Z,12.58
2022-10-19T13:20:20.171Z,12.62
2022-10-19T13:22:49.380Z,12.68
2022-10-19T13:25:16.142Z,12.74
2022-10-19T13:27:44.636Z,12.81
2022-10-19T13:30:34.437Z,12.88
2022-10-19T13:33:28.666Z,12.89
2022-10-19T13:35:58.785Z,12.83
2022-10-19T13:41:11.137Z,12.72
2022-10-19T13:44:09.206Z,12.67
2022-10-19T13:46:57.336Z,12.63
2022-10-19T13:49:35.440Z,12.64
2022-10-19T13:52:17.484Z,12.66
2022-10-19T13:55:00.906Z,12.65
2022-10-19T13:58:00.458Z,12.65
2022-10-19T14:00:45.002Z,12.65
2022-10-19T14:03:23.927Z,12.66
2022-10-19T14:06:10.074Z,12.67
2022-10-19T14:08:38.210Z,12.69
2022-10-19T14:11:15.527Z,12.68
2022-10-19T14:13:43.299Z,12.66
2022-10-19T14:16:20.687Z,12.62
2022-10-19T14:18:56.818Z,12.57
2022-10-19T14:21:38.876Z,12.51
2022-10-19T14:24:21.547Z,12.51
2022-10-19T14:26:48.314Z,12.53
2022-10-19T14:29:15.959Z,12.54
2022-10-19T14:31:43.085Z,12.54
2022-10-19T14:34:10.046Z,12.52
2022-10-19T14:36:39.653Z,12.50
2022-10-19T14:39:07.615Z,12.48
2022-10-19T14:41:37.283Z,12.46
2022-10-19T14:44:30.460Z,12.44
2022-10-19T14:47:00.972Z,12.40
2022-10-19T14:49:27.784Z,12.36
2022-10-19T14:52:01.357Z,12.32
2022-10-19T14:54:41.133Z,12.30
2022-10-19T14:57:15.897Z,12.30
2022-10-19T14:59:46.557Z,12.30
2022-10-19T15:02:24.299Z,12.32
2022-10-19T15:04:54.237Z,12.32
2022-10-19T15:07:25.655Z,12.29
2022-10-19T15:09:58.140Z,12.26
2022-10-19T15:12:41.469Z,12.22
2022-10-19T15:15:13.573Z,12.13
2022-10-19T15:17:52.301Z,12.05
2022-10-19T15:20:44.148Z,11.97
2022-10-19T15:23:44.763Z,11.89
2022-10-19T15:26:21.996Z,11.83
2022-10-19T15:28:49.395Z,11.78
2022-10-19T15:31:24.993Z,11.72
2022-10-19T15:33:54.407Z,11.71
2022-10-19T15:36:22.785Z,11.67
2022-10-19T15:39:17.503Z,11.63
2022-10-19T15:41:49.162Z,11.56
2022-10-19T15:44:33.669Z,11.49
2022-10-19T15:47:19.475Z,11.41
2022-10-19T15:49:53.340Z,11.35
2022-10-19T15:52:22.730Z,11.30
2022-10-19T15:54:51.262Z,11.25
2022-10-19T15:57:30.525Z,11.20
2022-10-19T16:00:01.255Z,11.15
2022-10-19T16:02:31.045Z,11.11
2022-10-19T16:04:58.176Z,11.08
2022-10-19T16:07:29.478Z,11.06
2022-10-19T16:09:57.365Z,11.03
2022-10-19T16:12:26.454Z,11.00
2022-10-19T16:14:54.300Z,10.97
2022-10-19T16:17:21.613Z,10.97
2022-10-19T16:19:48.574Z,10.99
2022-10-19T16:22:16.378Z,11.01
2022-10-19T16:24:43.499Z,11.02
2022-10-19T16:27:15.103Z,11.03
2022-10-19T16:29:44.389Z,11.04
2022-10-19T16:32:11.188Z,11.03
2022-10-19T16:34:38.267Z,11.03
2022-10-19T16:37:06.954Z,11.03
2022-10-19T16:39:34.827Z,10.98
2022-10-19T16:42:01.534Z,10.91
2022-10-19T16:44:28.370Z,10.84
2022-10-19T16:46:57.502Z,10.81
2022-10-19T16:49:28.328Z,10.81
2022-10-19T16:51:57.405Z,10.80
2022-10-19T16:54:26.849Z,10.77
2022-10-19T16:56:55.711Z,10.76
2022-10-19T16:59:22.561Z,10.75
2022-10-19T17:01:49.591Z,10.71
2022-10-19T17:04:18.189Z,10.68
2022-10-19T17:06:45.092Z,10.65
2022-10-19T17:11:59.069Z,10.61
2022-10-19T17:14:26.051Z,10.61
2022-10-19T17:16:52.814Z,10.60
2022-10-19T17:19:19.495Z,10.58
2022-10-19T17:21:47.009Z,10.57
2022-10-19T17:24:21.690Z,10.55
2022-10-19T17:26:51.823Z,10.54
2022-10-19T17:29:20.222Z,10.53
2022-10-19T17:31:48.626Z,10.55
2022-10-19T17:34:16.333Z,10.59
2022-10-19T17:36:45.378Z,10.62
2022-10-19T17:39:17.933Z,10.61
2022-10-19T17:41:47.480Z,10.56
2022-10-19T17:44:14.718Z,10.53
2022-10-19T17:46:42.044Z,10.49
2022-10-19T17:49:10.116Z,10.45
2022-10-19T17:51:38.441Z,10.45
2022-10-19T17:54:08.561Z,10.41
2022-10-19T17:56:37.555Z,10.40
2022-10-19T17:59:05.104Z,10.37
2022-10-19T18:01:31.922Z,10.33
2022-10-19T18:03:58.826Z,10.30
2022-10-19T18:06:28.142Z,10.29
2022-10-19T18:08:56.642Z,10.28
2022-10-19T18:11:27.022Z,10.29
2022-10-19T18:13:57.615Z,10.30
2022-10-19T18:16:28.022Z,10.32
2022-10-19T18:18:57.007Z,10.31
2022-10-19T18:21:27.386Z,10.29
2022-10-19T18:23:56.307Z,10.25
2022-10-19T18:26:25.327Z,10.24
2022-10-19T18:28:53.935Z,10.22
2022-10-19T18:31:23.760Z,10.22
2022-10-19T18:34:00.099Z,10.22
2022-10-19T18:36:28.286Z,10.21
2022-10-19T18:38:58.069Z,10.21
2022-10-19T18:41:26.125Z,10.21
2022-10-19T18:43:54.844Z,10.21
2022-10-19T18:46:24.217Z,10.19
2022-10-19T18:48:51.520Z,10.18
2022-10-19T18:51:20.109Z,10.20
2022-10-19T18:53:47.923Z,10.22
2022-10-19T18:56:17.404Z,10.23
2022-10-19T18:58:44.652Z,10.23
2022-10-19T19:01:16.552Z,10.22
2022-10-19T19:03:46.108Z,10.19
2022-10-19T19:06:15.718Z,10.18
2022-10-19T19:11:19.144Z,10.17
2022-10-19T19:13:49.342Z,10.15
2022-10-19T19:16:16.319Z,10.13
2022-10-19T19:18:43.182Z,10.12
2022-10-19T19:21:19.811Z,10.09
2022-10-19T19:23:48.350Z,10.07
2022-10-19T19:26:34.154Z,10.04
2022-10-19T19:29:00.983Z,10.02
2022-10-19T19:31:28.186Z,9.99
2022-10-19T19:33:55.114Z,9.95
2022-10-19T19:36:22.058Z,9.91
2022-10-19T19:38:51.915Z,9.84
2022-10-19T19:41:18.687Z,9.75
2022-10-19T19:43:45.467Z,9.66
2022-10-19T19:46:15.425Z,9.55
2022-10-19T19:48:44.357Z,9.46
2022-10-19T19:51:15.061Z,9.40
2022-10-19T19:53:42.025Z,9.34
2022-10-19T19:56:10.881Z,9.29
2022-10-19T19:58:37.832Z,9.22
2022-10-19T20:01:13.436Z,9.14
2022-10-19T20:03:41.463Z,9.04
2022-10-19T20:06:09.596Z,8.94
2022-10-19T20:08:37.353Z,8.84
2022-10-19T20:11:07.707Z,8.77
2022-10-19T20:13:35.663Z,8.72
2022-10-19T20:16:12.990Z,8.67
2022-10-19T20:18:41.595Z,8.62
2022-10-19T20:21:08.362Z,8.57
2022-10-19T20:23:35.041Z,8.50
2022-10-19T20:26:02.327Z,8.43
2022-10-19T20:28:31.602Z,8.37
2022-10-19T20:31:00.287Z,8.32
2022-10-19T20:33:29.806Z,8.29
2022-10-19T20:35:57.234Z,8.24
2022-10-19T20:38:25.364Z,8.20
2022-10-19T20:40:52.284Z,8.15
2022-10-19T20:43:18.980Z,8.08
2022-10-19T20:45:45.652Z,8.03
2022-10-19T20:48:12.325Z,7.98
2022-10-19T20:50:39.840Z,7.94
2022-10-19T20:53:06.888Z,7.90
2022-10-19T20:55:33.856Z,7.85
2022-10-19T20:58:00.524Z,7.80
2022-10-19T21:00:27.231Z,7.73
2022-10-19T21:02:53.990Z,7.64
2022-10-19T21:05:20.706Z,7.55
2022-10-19T21:07:47.390Z,7.48
2022-10-19T21:10:14.187Z,7.42
2022-10-19T21:12:41.052Z,7.36
2022-10-19T21:15:08.351Z,7.31
2022-10-19T21:17:36.229Z,7.23
2022-10-19T21:20:04.674Z,7.16
2022-10-19T21:22:34.449Z,7.07
2022-10-19T21:25:04.351Z,6.96
2022-10-19T21:27:31.181Z,6.85
2022-10-19T21:29:57.842Z,6.77
2022-10-19T21:32:24.515Z,6.70
2022-10-19T21:34:51.163Z,6.63
2022-10-19T21:37:17.862Z,6.55
2022-10-19T21:39:44.518Z,6.46
2022-10-19T21:42:11.211Z,6.34
2022-10-19T21:44:37.952Z,6.21
2022-10-19T21:47:04.625Z,6.09
2022-10-19T21:49:31.472Z,5.98
2022-10-19T21:51:58.131Z,5.88
2022-10-19T21:54:25.537Z,5.78
2022-10-19T21:56:53.406Z,5.68
2022-10-19T21:59:20.399Z,5.58
2022-10-19T22:01:47.408Z,5.47
2022-10-19T22:04:17.095Z,5.37
2022-10-19T22:06:44.338Z,5.24
2022-10-19T22:09:14.356Z,5.14
2022-10-19T22:11:41.912Z,5.04
2022-10-19T22:14:11.538Z,4.95
2022-10-19T22:16:40.385Z,4.86
2022-10-19T22:19:07.492Z,4.80
2022-10-19T22:21:35.216Z,4.72
2022-10-19T22:24:06.703Z,4.62
2022-10-19T22:26:37.309Z,4.51
2022-10-19T22:29:06.930Z,4.38
2022-10-19T22:31:36.037Z,4.28
2022-10-19T22:34:07.299Z,4.20
2022-10-19T22:36:34.488Z,4.12
2022-10-19T22:39:01.223Z,4.03
2022-10-19T22:41:28.095Z,3.93
2022-10-19T22:43:54.788Z,3.82
2022-10-19T22:46:21.559Z,3.73
2022-10-19T22:48:48.306Z,3.64
2022-10-19T22:51:15.146Z,3.57
2022-10-19T22:53:42.051Z,3.52
2022-10-19T22:56:12.103Z,3.49
2022-10-19T22:58:39.601Z,3.50
2022-10-19T23:01:11.143Z,3.51
2022-10-19T23:03:40.491Z,3.51
2022-10-19T23:06:09.644Z,3.49
2022-10-19T23:08:37.146Z,3.46
2022-10-19T23:11:03.950Z,3.41
2022-10-19T23:13:30.718Z,3.35
2022-10-19T23:15:57.417Z,3.29
2022-10-19T23:18:24.256Z,3.26
2022-10-19T23:20:55.942Z,3.22
2022-10-19T23:23:23.439Z,3.18
2022-10-19T23:26:04.346Z,3.12
2022-10-19T23:28:32.807Z,3.04
2022-10-19T23:31:04.794Z,2.97
2022-10-19T23:33:32.748Z,2.87
2022-10-19T23:36:05.031Z,2.79
2022-10-19T23:38:31.794Z,2.74
2022-10-19T23:40:58.512Z,2.69
2022-10-19T23:43:25.612Z,2.65
2022-10-19T23:45:52.304Z,2.61
2022-10-19T23:48:19.055Z,2.56
2022-10-19T23:50:45.795Z,2.50
2022-10-19T23:53:12.991Z,2.43
2022-10-19T23:55:39.714Z,2.32
2022-10-19T23:58:06.430Z,2.22
